LFLLLFLC

Guest
Details From LFLL - Lyon Saint Exupery
To LFLC - Clermont-Ferrand_Auvergne
Flight Number -
Tags decoded
Created
Modified
Stats Distance 82 nm / 152 km
Max Altitude 0 ft / 0 m
Waypoints 3
Social Downloads 1
Likes 0
Share VATSIM

Download

Looking for another format? Having issues loading an existing format? Contact us
Advertisement - Login to hide

Notes

Requested: LFLL EB LFLC

Route

LFLL EB LFLC

ID Type Via Altitude Latitude Longitude Leg Dist Tot Dist Heading (true) Name
O LFLL APT - 0 ft / 0 m 45.72581˚ 5.09075˚ - 0 nm - Lyon Saint Exupery
EB NDB - 0 ft / 0 m 45.63778˚ 4.28389˚ 34 nm 34 nm 261° / 261° Saint Etienne Boutheon NDB
O LFLC APT - 0 ft / 0 m 45.78671˚ 3.16997˚ 47 nm 81 nm 281° / 280° Clermont-Ferrand_Auvergne

Altitude Profile

Advertisement - Login to hide

LFLL

Details ICAO LFLL (LYS)
Name Lyon Saint Exupery
Region France
Timezone Europe/Paris (UTC+1.0)
Stats Elevation 820 ft / 250 m (AMSL)
Location 45.725812° 5.090748°
Runways 2
Magnetic Variation 1.489° E

METAR

LFLL 170430Z 13003KT 9999 SCT025 BKN030 01/M00 Q1024 TEMPO 2000 BR BKN005 BKN010

Decode

TAF

TAF LFLL 162300Z 1700/1806 34005KT 8000 SCT010 BKN015 TEMPO 1700/1712 2000 BR BKN005 BKN010 PROB40 TEMPO 1705/1709 -SNRA OVC003 PROB30 TEMPO 1706/1708 0600 -SNDZ FG OVC002 PROB30 1721/1806 2000 BCFG OVC005

Decode

Departure Runways

ID Width Length Bearing (true) Bearing (mag) Surface Threshold Offset Overrun Length
18L 148 ft / 45 m 8,798 ft / 2,682 m 175.13° 173.64° Asphalt 33 ft / 10 m 52 ft / 16 m
18R 148 ft / 45 m 13,149 ft / 4,008 m 175.14° 173.65° Asphalt 16 ft / 5 m 203 ft / 62 m
36L 148 ft / 45 m 13,149 ft / 4,008 m 355.15° 353.66° Asphalt 36 ft / 11 m 151 ft / 46 m
36R 148 ft / 45 m 8,798 ft / 2,682 m 355.13° 353.64° Asphalt 26 ft / 8 m 52 ft / 16 m

LFLC

Details ICAO LFLC (CFE)
Name Clermont-Ferrand_Auvergne
Region France
Timezone Europe/Paris (UTC+1.0)
Stats Elevation 1,089 ft / 332 m (AMSL)
Location 45.786712° 3.169967°
Runways 1
Magnetic Variation 0.980° E

METAR

LFLC 170430Z AUTO 18005KT 9999 FEW015 BKN048 OVC062 02/M01 Q1024 TEMPO 3500 -SHSNRA OVC013

Decode

TAF

TAF LFLC 170200Z 1703/1803 VRB03KT 9999 BKN030 PROB40 TEMPO 1703/1712 3500 -SHSNRA OVC013

Decode

Destination Runways

ID Width Length Bearing (true) Bearing (mag) Surface Threshold Offset Overrun Length
08 148 ft / 45 m 9,878 ft / 3,011 m 81.95° 80.97° Asphalt 0 ft / 0 m 0 ft / 0 m
26 148 ft / 45 m 9,878 ft / 3,011 m 261.98° 261.00° Asphalt 476 ft / 145 m 0 ft / 0 m

Approach Navaids

Runway Type Ident Frequency Range Bearing (true) Bearing (mag) Slope Elevation
26 Localiser CF 111.10 MHz 27 nm / 50 km 261.98° 261.00° - 1,089 ft / 332 m (AMSL)
26 Glidescope CF 111.10 MHz 27 nm / 50 km 261.98° 261.00° 3.00° 1,089 ft / 332 m (AMSL)
26 DME CF 111.10 MHz 27 nm / 50 km - - - 1,089 ft / 332 m (AMSL)

Popular Alternatives